Time;durP1;ratioP1;P1;durP2;ratioP2;P2;SDS_P1;SDS_P2;PMS_P1;PMS_P2;Temp;Humidity;BMP_temperature;BMP_pressure;BME280_temperature;BME280_humidity;BME280_pressure;Samples;Min_cycle;Max_cycle;Signal;HPM_P1;HPM_P2
2023/01/02 00:00:34;;;;;;;47.97;18.90;;;5.10;99.90;;;;;;4440455;28;658149;-71
2023/01/02 00:03:21;;;;;;;35.40;16.98;;;5.10;99.90;;;;;;4433832;28;658372;-71
2023/01/02 00:06:09;;;;;;;39.03;17.70;;;5.10;99.90;;;;;;4438185;28;657953;-71
2023/01/02 00:08:56;;;;;;;40.67;18.37;;;5.10;99.90;;;;;;4425236;28;657549;-71
2023/01/02 00:11:44;;;;;;;35.33;16.53;;;5.10;99.90;;;;;;4422192;28;658978;-71
2023/01/02 00:14:32;;;;;;;35.33;16.40;;;5.10;99.90;;;;;;4392725;28;658907;-71
2023/01/02 00:17:19;;;;;;;33.70;14.97;;;5.00;99.90;;;;;;4426377;28;657516;-71
2023/01/02 00:20:07;;;;;;;33.40;15.98;;;5.00;99.90;;;;;;4405462;28;657486;-71
2023/01/02 00:22:54;;;;;;;35.77;15.93;;;5.00;99.90;;;;;;4417948;28;657530;-70
2023/01/02 00:25:42;;;;;;;32.87;16.90;;;5.00;99.90;;;;;;4408216;28;657684;-71
2023/01/02 00:28:30;;;;;;;36.83;16.87;;;5.00;99.90;;;;;;4405260;28;657780;-71
2023/01/02 00:31:17;;;;;;;33.63;15.57;;;5.10;99.90;;;;;;4412528;28;659260;-71
2023/01/02 00:34:05;;;;;;;38.87;15.27;;;5.10;99.90;;;;;;4408110;28;657309;-71
2023/01/02 00:36:52;;;;;;;36.63;15.13;;;5.20;99.90;;;;;;4430388;28;658225;-71
2023/01/02 00:39:40;;;;;;;38.10;15.13;;;5.10;99.90;;;;;;4399422;28;658083;-71
2023/01/02 00:42:27;;;;;;;32.63;15.47;;;5.10;99.90;;;;;;4426312;28;658484;-71
2023/01/02 00:45:17;;;;;;;33.60;14.30;;;5.20;99.90;;;;;;4414451;28;657186;-71
2023/01/02 00:48:04;;;;;;;30.20;15.10;;;5.20;99.90;;;;;;4415201;28;658499;-71
2023/01/02 00:50:51;;;;;;;29.43;13.87;;;5.20;99.90;;;;;;4397458;28;657578;-71
2023/01/02 00:53:38;;;;;;;28.50;14.23;;;5.10;99.90;;;;;;4443086;28;658542;-71
2023/01/02 00:56:26;;;;;;;29.43;14.10;;;5.10;99.90;;;;;;4420031;28;657590;-71
2023/01/02 00:59:13;;;;;;;30.97;14.23;;;5.10;99.90;;;;;;4449232;28;658343;-70
2023/01/02 01:02:02;;;;;;;30.40;13.90;;;5.10;99.90;;;;;;4427815;28;657546;-70
2023/01/02 01:04:49;;;;;;;33.30;15.73;;;5.10;99.90;;;;;;4448001;28;657480;-71
2023/01/02 01:07:36;;;;;;;36.80;16.53;;;5.00;99.90;;;;;;4425882;28;657748;-70
2023/01/02 01:10:23;;;;;;;35.73;16.10;;;5.00;99.90;;;;;;4449564;28;659030;-71
2023/01/02 01:13:11;;;;;;;33.27;15.37;;;4.90;99.90;;;;;;4427009;28;658188;-70
2023/01/02 01:16:03;;;;;;;34.80;16.53;;;4.90;99.90;;;;;;4449383;28;658333;-70
2023/01/02 01:18:54;;;;;;;43.73;20.00;;;4.80;99.90;;;;;;4398900;28;657994;-71
2023/01/02 01:21:42;;;;;;;39.43;19.70;;;4.70;99.90;;;;;;4426194;28;657918;-70
2023/01/02 01:24:29;;;;;;;36.07;16.80;;;4.70;99.90;;;;;;4447721;28;657603;-71
2023/01/02 01:27:17;;;;;;;33.03;15.13;;;4.70;99.90;;;;;;4425220;28;658414;-70
2023/01/02 01:30:04;;;;;;;35.30;14.63;;;4.70;99.90;;;;;;4446940;28;657561;-71
2023/01/02 01:32:52;;;;;;;33.60;14.40;;;4.70;99.90;;;;;;4424721;28;657957;-71
2023/01/02 01:35:40;;;;;;;32.87;14.13;;;4.70;99.90;;;;;;4439617;28;657564;-71
2023/01/02 01:38:28;;;;;;;33.77;14.23;;;4.60;99.90;;;;;;4425169;28;657085;-71
2023/01/02 01:41:17;;;;;;;33.10;14.00;;;4.60;99.90;;;;;;4432358;28;657717;-71
2023/01/02 01:44:37;;;;;;;29.70;14.80;;;4.60;99.90;;;;;;4440488;28;658054;-71
2023/01/02 01:47:26;;;;;;;32.27;15.33;;;4.50;99.90;;;;;;4414510;28;657741;-71
2023/01/02 01:50:16;;;;;;;30.40;14.60;;;4.50;99.90;;;;;;4424333;28;657695;-70
2023/01/02 01:53:06;;;;;;;30.23;15.07;;;4.50;99.90;;;;;;4421696;28;657929;-71
2023/01/02 01:55:55;;;;;;;27.70;15.00;;;4.40;99.90;;;;;;4414920;28;658129;-71
2023/01/02 01:58:43;;;;;;;28.87;14.83;;;4.40;99.90;;;;;;4383042;28;658084;-70
2023/01/02 02:01:31;;;;;;;30.97;14.07;;;4.40;99.90;;;;;;4376546;28;657515;-71
2023/01/02 02:04:18;;;;;;;35.93;14.30;;;4.30;99.90;;;;;;4378754;28;657389;-70
2023/01/02 02:07:05;;;;;;;30.20;14.63;;;4.30;99.90;;;;;;4362250;28;658091;-71
2023/01/02 02:09:56;;;;;;;32.27;14.90;;;4.30;99.90;;;;;;4421286;28;658900;-71
2023/01/02 02:12:43;;;;;;;30.40;14.30;;;4.30;99.90;;;;;;4417024;28;658213;-70
2023/01/02 02:15:35;;;;;;;30.47;14.17;;;4.40;99.90;;;;;;4414806;28;657704;-70
2023/01/02 02:18:31;;;;;;;30.17;14.60;;;4.40;99.90;;;;;;4422591;28;658693;-70
2023/01/02 02:21:30;;;;;;;32.47;14.77;;;4.40;99.90;;;;;;4413654;28;657773;-71
2023/01/02 02:24:52;;;;;;;30.13;15.10;;;4.40;99.90;;;;;;4419246;28;656970;-70
2023/01/02 02:27:50;;;;;;;32.43;14.07;;;4.30;99.90;;;;;;4364076;28;658140;-71
2023/01/02 02:30:39;;;;;;;36.73;16.77;;;4.30;99.90;;;;;;4395228;28;657596;-71
2023/01/02 02:33:33;;;;;;;35.30;16.00;;;4.20;99.90;;;;;;4421373;28;657425;-70
2023/01/02 02:36:25;;;;;;;34.93;14.00;;;4.20;99.90;;;;;;4407492;28;657381;-71
2023/01/02 02:39:16;;;;;;;29.87;13.30;;;4.20;99.90;;;;;;4421693;28;657958;-70
2023/01/02 02:42:09;;;;;;;32.33;14.20;;;4.10;99.90;;;;;;4421691;28;658344;-70
2023/01/02 02:44:58;;;;;;;32.70;14.30;;;4.10;99.90;;;;;;4417816;28;657780;-71
2023/01/02 02:47:49;;;;;;;32.87;14.43;;;4.10;99.90;;;;;;4429312;28;657620;-70
2023/01/02 02:50:39;;;;;;;30.47;14.90;;;4.10;99.90;;;;;;4425910;28;657184;-70
2023/01/02 02:53:27;;;;;;;34.37;14.80;;;4.10;99.90;;;;;;4429007;28;658156;-70
2023/01/02 02:56:15;;;;;;;32.90;14.37;;;4.10;99.90;;;;;;4443740;28;657606;-71
2023/01/02 02:59:02;;;;;;;34.57;15.50;;;4.10;99.90;;;;;;4440709;28;658507;-70
2023/01/02 03:01:50;;;;;;;33.20;14.90;;;4.20;99.90;;;;;;4442193;28;658352;-70
2023/01/02 03:04:39;;;;;;;33.27;14.73;;;4.20;99.90;;;;;;4449099;28;658210;-70
2023/01/02 03:07:29;;;;;;;33.50;15.23;;;4.10;99.90;;;;;;4423681;28;657710;-70
2023/01/02 03:10:21;;;;;;;31.73;14.77;;;4.20;99.90;;;;;;4424718;28;658075;-70
2023/01/02 03:13:13;;;;;;;30.83;14.87;;;4.10;99.90;;;;;;4420587;28;659249;-70
2023/01/02 03:16:03;;;;;;;31.93;15.00;;;4.00;99.90;;;;;;4407408;28;657835;-70
2023/01/02 03:18:53;;;;;;;33.23;14.03;;;4.00;99.90;;;;;;4428869;28;657824;-70
2023/01/02 03:21:43;;;;;;;34.17;15.90;;;4.00;99.90;;;;;;4429640;28;657860;-70
2023/01/02 03:24:30;;;;;;;35.27;15.07;;;3.90;99.90;;;;;;4426112;28;658278;-70
2023/01/02 03:27:19;;;;;;;31.93;13.50;;;3.90;99.90;;;;;;4438339;28;659147;-70
2023/01/02 03:30:07;;;;;;;30.23;13.57;;;3.90;99.90;;;;;;4424092;28;657423;-70
2023/01/02 03:32:57;;;;;;;30.40;13.93;;;3.90;99.90;;;;;;4443553;28;658259;-70
2023/01/02 03:35:46;;;;;;;29.53;12.37;;;3.90;99.90;;;;;;4443804;28;657628;-70
2023/01/02 03:38:36;;;;;;;33.03;13.67;;;3.80;99.90;;;;;;4424273;28;658143;-70
2023/01/02 03:41:25;;;;;;;33.33;13.97;;;3.80;99.90;;;;;;4386634;28;658163;-70
2023/01/02 03:44:13;;;;;;;30.30;14.60;;;3.80;99.90;;;;;;4409238;28;658992;-70
2023/01/02 03:47:03;;;;;;;30.33;15.03;;;3.80;99.90;;;;;;4401216;28;658674;-70
2023/01/02 03:49:53;;;;;;;31.47;14.57;;;3.80;99.90;;;;;;4403924;28;657437;-70
2023/01/02 03:52:40;;;;;;;38.50;16.13;;;3.70;99.90;;;;;;4409828;28;657805;-70
2023/01/02 03:55:29;;;;;;;34.13;14.90;;;3.70;99.90;;;;;;4418499;28;658924;-70
2023/01/02 03:58:18;;;;;;;41.87;20.50;;;3.70;99.90;;;;;;4405439;28;657987;-70
2023/01/02 04:01:08;;;;;;;34.27;16.37;;;3.60;99.90;;;;;;4427429;28;658015;-70
2023/01/02 04:03:57;;;;;;;47.50;23.93;;;3.60;99.90;;;;;;4427522;28;657735;-70
2023/01/02 04:06:47;;;;;;;43.27;23.87;;;3.50;99.90;;;;;;4446927;28;657639;-70
2023/01/02 04:09:34;;;;;;;44.83;23.87;;;3.50;99.90;;;;;;4421692;28;658059;-70
2023/01/02 04:12:23;;;;;;;46.70;23.33;;;3.50;99.90;;;;;;4418194;28;657692;-70
2023/01/02 04:15:12;;;;;;;38.90;18.57;;;3.50;99.90;;;;;;4422453;28;657516;-70
2023/01/02 04:18:00;;;;;;;36.10;18.77;;;3.60;99.90;;;;;;4440562;28;656990;-70
2023/01/02 04:20:49;;;;;;;36.93;18.73;;;3.60;99.90;;;;;;4423792;28;657842;-70
2023/01/02 04:23:38;;;;;;;44.90;18.80;;;3.60;99.90;;;;;;4426733;28;657892;-70
2023/01/02 04:26:27;;;;;;;45.03;20.60;;;3.50;99.90;;;;;;4424630;28;657592;-70
2023/01/02 04:29:16;;;;;;;37.35;19.92;;;3.50;99.90;;;;;;4439202;28;658218;-70
2023/01/02 04:32:04;;;;;;;45.10;21.70;;;3.50;99.90;;;;;;4426055;28;658161;-70
2023/01/02 04:34:51;;;;;;;52.97;24.70;;;3.40;99.90;;;;;;4426434;28;658207;-70
2023/01/02 04:37:39;;;;;;;49.43;17.47;;;3.40;99.90;;;;;;4449059;28;659023;-70
2023/01/02 04:40:29;;;;;;;40.67;21.30;;;3.30;99.90;;;;;;4426946;28;657521;-70
2023/01/02 04:43:18;;;;;;;46.63;23.20;;;3.20;99.90;;;;;;4422617;28;657548;-71
2023/01/02 04:46:07;;;;;;;50.53;25.90;;;3.20;99.90;;;;;;4419850;28;658183;-70
2023/01/02 04:48:54;;;;;;;46.87;21.70;;;3.20;99.90;;;;;;4441531;28;657565;-70
2023/01/02 04:51:41;;;;;;;43.03;21.23;;;3.10;99.90;;;;;;4426231;28;657475;-70
2023/01/02 04:54:28;;;;;;;50.63;23.27;;;3.10;99.90;;;;;;4445771;28;658169;-70
2023/01/02 04:57:16;;;;;;;54.77;27.00;;;3.20;99.90;;;;;;4416092;28;657981;-70
2023/01/02 05:00:04;;;;;;;60.97;31.53;;;3.20;99.90;;;;;;4430824;28;657811;-70
2023/01/02 05:02:52;;;;;;;59.30;27.77;;;3.30;99.90;;;;;;4421529;28;657307;-70
2023/01/02 05:05:40;;;;;;;60.43;29.33;;;3.30;99.90;;;;;;4445837;28;657762;-70
2023/01/02 05:08:28;;;;;;;66.47;29.97;;;3.30;99.90;;;;;;4421501;28;658780;-70
2023/01/02 05:11:16;;;;;;;72.73;35.07;;;3.30;99.90;;;;;;4416576;28;657474;-70
2023/01/02 05:14:04;;;;;;;77.40;38.17;;;3.30;99.90;;;;;;4440296;28;657614;-70
2023/01/02 05:16:51;;;;;;;76.53;34.37;;;3.30;99.90;;;;;;4427093;28;657354;-70
2023/01/02 05:19:39;;;;;;;76.03;36.37;;;3.30;99.90;;;;;;4436004;28;658995;-70
2023/01/02 05:25:32;;;;;;;125.77;45.33;;;3.20;99.90;;;;;;4412632;28;658606;-70
2023/01/02 05:28:19;;;;;;;112.05;43.00;;;3.20;99.90;;;;;;4443772;28;658802;-70
2023/01/02 05:31:07;;;;;;;92.30;37.87;;;3.20;99.90;;;;;;4419991;28;658854;-70
2023/01/02 05:33:54;;;;;;;83.70;37.10;;;3.20;99.90;;;;;;4445452;28;657429;-69
2023/01/02 05:36:43;;;;;;;75.93;32.73;;;3.20;99.90;;;;;;4426431;28;658301;-69
2023/01/02 05:39:30;;;;;;;72.77;35.63;;;3.10;99.90;;;;;;4438456;28;658285;-69
2023/01/02 05:42:17;;;;;;;90.70;40.07;;;3.20;99.90;;;;;;4445316;28;658325;-70
2023/01/02 05:45:05;;;;;;;81.93;37.80;;;3.20;99.90;;;;;;4441076;28;657765;-69
2023/01/02 05:47:53;;;;;;;416.10;83.40;;;3.10;99.90;;;;;;4418096;28;658346;-69
2023/01/02 05:50:40;;;;;;;290.33;76.13;;;3.20;99.90;;;;;;4437433;28;658492;-69
2023/01/02 05:53:29;;;;;;;284.57;82.63;;;3.20;99.90;;;;;;4447310;28;659030;-70
2023/01/02 05:56:17;;;;;;;121.40;45.30;;;3.20;99.90;;;;;;4424313;28;659205;-70
2023/01/02 05:59:06;;;;;;;142.53;48.77;;;3.30;99.90;;;;;;4439201;28;658613;-69
2023/01/02 06:01:53;;;;;;;233.50;63.72;;;3.40;99.90;;;;;;4410670;28;658398;-69
2023/01/02 06:04:40;;;;;;;167.33;54.47;;;3.40;99.90;;;;;;4378285;28;659017;-69
2023/01/02 06:07:28;;;;;;;96.93;33.33;;;3.70;99.90;;;;;;4369058;28;658706;-70
2023/01/02 06:10:17;;;;;;;69.20;28.13;;;3.70;99.90;;;;;;4372443;28;657639;-70
2023/01/02 06:13:04;;;;;;;67.28;28.85;;;3.70;99.90;;;;;;4375712;28;658342;-69
2023/01/02 06:15:51;;;;;;;46.00;19.43;;;3.70;99.90;;;;;;4389030;28;657757;-70
2023/01/02 06:18:39;;;;;;;79.38;31.63;;;3.80;99.90;;;;;;4434177;28;658828;-69
2023/01/02 06:21:26;;;;;;;108.93;47.43;;;3.70;99.90;;;;;;4409443;28;657686;-69
2023/01/02 06:24:13;;;;;;;65.90;23.20;;;3.70;99.90;;;;;;4444572;28;659520;-69
2023/01/02 06:27:02;;;;;;;33.53;14.40;;;3.70;99.90;;;;;;4429430;28;657651;-69
2023/01/02 06:29:49;;;;;;;37.83;17.40;;;3.60;99.90;;;;;;4444311;28;657402;-69
2023/01/02 06:32:36;;;;;;;43.97;18.70;;;3.70;99.90;;;;;;4428188;28;657813;-69
2023/01/02 06:35:23;;;;;;;29.33;13.60;;;3.70;99.90;;;;;;4451305;28;658163;-69
2023/01/02 06:38:11;;;;;;;31.80;14.30;;;3.70;99.90;;;;;;4429758;28;659081;-69
2023/01/02 06:40:59;;;;;;;33.67;15.37;;;3.70;99.90;;;;;;4448648;28;657873;-69
2023/01/02 06:43:49;;;;;;;23.47;11.37;;;3.70;99.90;;;;;;4429269;28;657757;-69
2023/01/02 06:46:36;;;;;;;22.73;11.00;;;3.60;99.90;;;;;;4426551;28;657095;-69
2023/01/02 06:49:24;;;;;;;29.77;13.20;;;3.60;99.90;;;;;;4446291;28;658388;-69
2023/01/02 06:52:11;;;;;;;28.10;11.73;;;3.60;99.90;;;;;;4420599;28;657847;-73
2023/01/02 06:54:58;;;;;;;331.07;78.03;;;3.60;99.90;;;;;;4440619;28;657798;-73
2023/01/02 06:57:45;;;;;;;171.50;47.50;;;3.50;99.90;;;;;;4426741;28;658954;-73
2023/01/02 07:00:34;;;;;;;616.37;161.67;;;3.60;99.90;;;;;;4437031;28;659856;-73
2023/01/02 07:03:21;;;;;;;322.02;76.70;;;3.60;99.90;;;;;;4420869;28;659474;-73
2023/01/02 07:06:10;;;;;;;359.20;96.37;;;3.70;99.90;;;;;;4443195;28;658783;-73
2023/01/02 07:08:57;;;;;;;53.60;19.87;;;3.70;99.90;;;;;;4422617;28;659994;-73
2023/01/02 07:11:44;;;;;;;64.27;21.70;;;3.80;99.90;;;;;;4445955;28;657783;-73
2023/01/02 07:14:31;;;;;;;38.95;15.23;;;3.80;99.90;;;;;;4422438;28;657915;-73
2023/01/02 07:17:20;;;;;;;30.70;13.97;;;3.90;99.90;;;;;;4441294;28;657394;-73
2023/01/02 07:20:08;;;;;;;39.10;15.30;;;3.90;99.90;;;;;;4419610;28;658283;-73
2023/01/02 07:22:55;;;;;;;205.63;73.37;;;4.00;99.90;;;;;;4417515;28;657624;-73
2023/01/02 07:25:42;;;;;;;110.20;44.20;;;4.10;99.90;;;;;;4437969;28;659887;-74
2023/01/02 07:28:30;;;;;;;87.57;37.37;;;4.10;99.90;;;;;;4433286;28;658250;-73
2023/01/02 07:31:18;;;;;;;64.40;26.53;;;4.30;99.90;;;;;;4442737;28;658329;-73
2023/01/02 07:34:07;;;;;;;65.20;24.90;;;4.30;99.90;;;;;;4418981;28;657301;-73
2023/01/02 07:36:54;;;;;;;245.50;68.73;;;4.40;99.90;;;;;;4434868;28;657975;-73
2023/01/02 07:39:41;;;;;;;562.40;155.23;;;4.50;99.90;;;;;;4414355;28;661662;-73
2023/01/02 07:42:28;;;;;;;368.00;100.03;;;4.60;99.90;;;;;;4432347;28;660122;-73
2023/01/02 07:45:16;;;;;;;555.23;158.47;;;4.60;99.90;;;;;;4415533;28;659637;-73
2023/01/02 07:48:03;;;;;;;307.27;69.00;;;4.70;99.90;;;;;;4435381;28;660063;-73
2023/01/02 07:50:52;;;;;;;125.03;44.97;;;4.70;99.90;;;;;;4414982;28;658912;-73
2023/01/02 07:53:40;;;;;;;44.20;19.10;;;4.90;99.90;;;;;;4434962;28;658934;-73
2023/01/02 07:56:27;;;;;;;52.03;20.60;;;5.10;99.90;;;;;;4412119;28;657649;-73
2023/01/02 07:59:14;;;;;;;252.80;72.13;;;5.30;99.90;;;;;;4433631;28;657690;-73
2023/01/02 08:02:02;;;;;;;86.03;34.17;;;5.40;99.90;;;;;;4412970;28;658758;-73
2023/01/02 08:04:49;;;;;;;21.80;10.70;;;5.50;99.90;;;;;;4442622;28;657334;-73
2023/01/02 08:07:37;;;;;;;41.90;16.50;;;5.60;99.90;;;;;;4418453;28;657612;-73
2023/01/02 08:10:25;;;;;;;62.73;23.03;;;5.80;99.90;;;;;;4435303;28;657813;-73
2023/01/02 08:13:12;;;;;;;108.60;39.83;;;5.90;99.90;;;;;;4439883;28;657503;-73
2023/01/02 08:16:04;;;;;;;139.10;53.87;;;6.00;99.90;;;;;;4436001;28;658630;-73
2023/01/02 08:18:54;;;;;;;225.20;88.77;;;6.20;99.90;;;;;;4417273;28;658759;-73
2023/01/02 08:21:41;;;;;;;223.00;90.17;;;6.20;99.90;;;;;;4416683;28;658572;-73
2023/01/02 08:24:30;;;;;;;204.60;71.95;;;6.30;99.90;;;;;;4437814;28;659733;-73
2023/01/02 08:27:17;;;;;;;470.97;164.53;;;6.40;99.90;;;;;;4418078;28;659759;-73
2023/01/02 08:30:05;;;;;;;410.93;141.07;;;6.50;99.90;;;;;;4443646;28;660335;-73
2023/01/02 08:32:52;;;;;;;261.50;98.73;;;6.70;99.90;;;;;;4414319;28;659651;-73
2023/01/02 08:35:39;;;;;;;166.10;68.80;;;6.90;99.90;;;;;;4437087;28;658530;-73
2023/01/02 08:38:27;;;;;;;69.57;29.80;;;7.10;99.90;;;;;;4418554;28;658836;-73
2023/01/02 08:41:15;;;;;;;99.37;40.37;;;7.50;99.90;;;;;;4442233;28;657199;-73
2023/01/02 08:44:03;;;;;;;53.67;25.50;;;7.90;99.90;;;;;;4420542;28;658323;-73
2023/01/02 08:46:50;;;;;;;79.90;32.53;;;8.30;99.90;;;;;;4419954;28;657501;-73
2023/01/02 08:49:37;;;;;;;60.97;28.37;;;8.60;99.90;;;;;;4443276;28;658304;-73
2023/01/02 08:52:25;;;;;;;59.03;27.73;;;8.50;99.90;;;;;;4431679;28;658254;-73
2023/01/02 08:55:12;;;;;;;204.40;66.17;;;8.60;99.90;;;;;;4440231;28;659202;-73
2023/01/02 08:58:02;;;;;;;96.70;36.20;;;8.70;99.90;;;;;;4442878;28;658885;-73
2023/01/02 09:00:52;;;;;;;70.53;29.63;;;8.70;99.90;;;;;;4441431;28;657439;-73
2023/01/02 09:03:39;;;;;;;54.57;25.40;;;8.80;99.90;;;;;;4418899;28;657909;-73
2023/01/02 09:06:27;;;;;;;37.90;17.83;;;8.90;99.90;;;;;;4424265;28;657838;-73
2023/01/02 09:09:15;;;;;;;44.53;20.50;;;9.00;99.90;;;;;;4435895;28;657461;-73
2023/01/02 09:12:02;;;;;;;41.50;18.90;;;9.10;99.90;;;;;;4416484;28;658320;-74
2023/01/02 09:14:51;;;;;;;29.77;15.50;;;9.30;99.90;;;;;;4436186;28;657931;-74
2023/01/02 09:17:38;;;;;;;34.80;16.63;;;9.40;99.90;;;;;;4391087;28;658646;-74
2023/01/02 09:20:25;;;;;;;34.00;17.63;;;9.50;99.90;;;;;;4398423;28;657391;-73
2023/01/02 09:23:12;;;;;;;29.40;17.03;;;9.60;99.90;;;;;;4442082;28;657391;-74
2023/01/02 09:26:00;;;;;;;28.20;14.83;;;10.00;99.90;;;;;;4432286;28;657357;-74
2023/01/02 09:28:47;;;;;;;23.57;13.27;;;10.70;99.90;;;;;;4439150;28;659138;-74
2023/01/02 09:31:37;;;;;;;35.37;18.20;;;11.50;99.90;;;;;;4431474;28;658642;-73
2023/01/02 09:34:24;;;;;;;49.83;24.70;;;12.20;99.90;;;;;;4439010;28;658648;-74
2023/01/02 09:37:11;;;;;;;22.73;11.80;;;13.10;99.90;;;;;;4418933;28;658635;-74
2023/01/02 09:39:58;;;;;;;20.87;10.43;;;14.10;99.90;;;;;;4433803;28;659539;-74
2023/01/02 09:42:46;;;;;;;19.30;10.40;;;15.30;99.90;;;;;;4418155;28;658714;-73
2023/01/02 09:45:40;;;;;;;14.53;8.60;;;16.20;99.90;;;;;;4440638;28;659077;-73
2023/01/02 09:48:31;;;;;;;15.27;8.20;;;17.20;99.90;;;;;;4414232;28;657237;-73
2023/01/02 09:51:19;;;;;;;18.73;9.75;;;18.30;91.80;;;;;;4409960;28;657937;-72
2023/01/02 09:54:07;;;;;;;18.55;10.32;;;19.20;88.40;;;;;;4416592;28;658017;-73
2023/01/02 09:57:06;;;;;;;19.80;11.32;;;19.80;83.50;;;;;;4439122;28;658960;-73
2023/01/02 09:59:56;;;;;;;15.98;9.43;;;20.50;78.40;;;;;;4412360;28;659216;-73
2023/01/02 10:02:50;;;;;;;13.23;7.78;;;21.00;74.00;;;;;;4418111;28;658497;-73
2023/01/02 10:05:56;;;;;;;17.52;8.75;;;21.70;66.90;;;;;;4392616;28;658475;-73
2023/01/02 10:08:49;;;;;;;15.70;8.87;;;21.90;60.30;;;;;;4408877;28;658157;-73
2023/01/02 10:11:42;;;;;;;12.88;7.15;;;22.30;62.50;;;;;;4413720;28;657653;-72
2023/01/02 10:14:35;;;;;;;11.98;5.32;;;22.70;58.40;;;;;;4431418;28;657749;-72
2023/01/02 10:17:22;;;;;;;11.52;5.75;;;23.20;56.20;;;;;;4421206;28;657918;-71
2023/01/02 10:20:17;;;;;;;10.48;5.25;;;23.20;54.10;;;;;;4434894;28;659232;-71
2023/01/02 10:23:06;;;;;;;9.25;5.75;;;22.50;52.50;;;;;;4417140;28;657019;-71
2023/01/02 10:25:55;;;;;;;12.57;6.25;;;22.50;52.60;;;;;;4418588;28;657214;-72
2023/01/02 10:28:46;;;;;;;14.80;7.13;;;22.60;52.60;;;;;;4414003;28;658081;-72
2023/01/02 10:31:35;;;;;;;12.95;6.57;;;23.00;52.10;;;;;;4412168;28;657813;-71
2023/01/02 10:34:23;;;;;;;12.98;7.05;;;23.40;50.00;;;;;;4417862;28;658012;-71
2023/01/02 10:37:12;;;;;;;12.90;7.47;;;23.80;48.90;;;;;;4421591;28;658600;-72
2023/01/02 10:40:01;;;;;;;15.18;7.40;;;23.80;49.30;;;;;;4432821;28;658647;-71
2023/01/02 10:42:48;;;;;;;13.43;6.03;;;23.80;48.40;;;;;;4412847;28;657719;-71
2023/01/02 10:45:35;;;;;;;16.67;6.50;;;24.20;46.40;;;;;;4414214;28;657822;-71
2023/01/02 10:48:24;;;;;;;14.40;7.07;;;23.80;46.70;;;;;;4435024;28;659462;-71
2023/01/02 10:51:13;;;;;;;12.63;7.07;;;23.90;46.90;;;;;;4411295;28;657392;-71
2023/01/02 10:54:01;;;;;;;11.68;6.40;;;24.00;46.80;;;;;;4417937;28;657170;-72
2023/01/02 10:56:53;;;;;;;13.38;7.10;;;24.30;46.50;;;;;;4434211;28;657168;-71
2023/01/02 10:59:41;;;;;;;12.83;7.40;;;24.10;45.70;;;;;;4394522;28;657689;-71
2023/01/02 11:02:30;;;;;;;11.82;6.60;;;23.80;45.20;;;;;;4438656;28;658033;-70
2023/01/02 11:05:19;;;;;;;12.77;7.00;;;23.50;45.70;;;;;;4414735;28;658729;-70
2023/01/02 11:08:11;;;;;;;17.48;6.80;;;23.20;47.40;;;;;;4420058;28;658400;-71
2023/01/02 11:11:00;;;;;;;13.15;6.55;;;23.40;46.20;;;;;;4416735;28;658423;-71
2023/01/02 11:13:50;;;;;;;12.20;6.43;;;23.40;45.90;;;;;;4418641;28;658072;-70
2023/01/02 11:16:38;;;;;;;13.35;7.63;;;22.90;46.90;;;;;;4418336;28;658538;-70
2023/01/02 11:19:26;;;;;;;15.13;7.82;;;22.70;47.60;;;;;;4417835;28;658265;-71
2023/01/02 11:22:16;;;;;;;13.05;7.25;;;21.90;48.80;;;;;;4438669;28;658116;-71
2023/01/02 11:25:04;;;;;;;13.73;6.60;;;22.10;49.60;;;;;;4413484;28;657757;-70
2023/01/02 11:27:52;;;;;;;14.80;6.45;;;22.20;47.70;;;;;;4413483;28;657588;-70
2023/01/02 11:30:44;;;;;;;12.90;6.55;;;22.10;48.40;;;;;;4434244;28;658396;-70
2023/01/02 11:33:33;;;;;;;10.93;6.50;;;22.40;47.90;;;;;;4391503;28;658433;-70
2023/01/02 11:36:20;;;;;;;13.32;7.05;;;22.40;47.70;;;;;;4430941;28;657507;-71
2023/01/02 11:39:25;;;;;;;13.38;6.32;;;22.50;48.20;;;;;;4439396;28;657215;-71
2023/01/02 11:45:21;;;;;;;12.70;6.93;;;23.60;46.20;;;;;;4413675;28;658212;-70
2023/01/02 11:48:12;;;;;;;16.80;7.03;;;23.40;46.20;;;;;;4440930;28;657280;-70
2023/01/02 11:50:59;;;;;;;12.88;6.78;;;22.70;45.70;;;;;;4415533;28;657036;-70
2023/01/02 11:53:46;;;;;;;14.93;7.00;;;22.90;47.00;;;;;;4419522;28;658351;-70
2023/01/02 11:56:34;;;;;;;16.20;7.40;;;22.60;48.70;;;;;;4435545;28;658037;-70
2023/01/02 11:59:22;;;;;;;14.45;7.53;;;23.00;46.50;;;;;;4398472;28;658054;-70
2023/01/02 12:02:13;;;;;;;12.43;6.40;;;23.40;45.90;;;;;;4402659;28;658314;-70
2023/01/02 12:05:02;;;;;;;14.30;7.18;;;23.30;45.10;;;;;;4407155;28;658018;-70
2023/01/02 12:07:54;;;;;;;13.75;7.13;;;22.40;46.60;;;;;;4330368;28;657677;-70
2023/01/02 12:10:49;;;;;;;14.48;7.63;;;22.20;47.10;;;;;;4305040;28;658773;-70
2023/01/02 12:13:54;;;;;;;12.25;7.43;;;21.30;49.00;;;;;;4392437;28;657706;-70
2023/01/02 12:16:46;;;;;;;14.77;7.70;;;21.90;48.10;;;;;;4420738;28;657208;-70
2023/01/02 12:19:47;;;;;;;15.45;7.72;;;22.10;48.10;;;;;;4410735;28;658428;-70
2023/01/02 12:23:07;;;;;;;14.95;8.15;;;21.60;50.00;;;;;;4415788;28;657792;-69
2023/01/02 12:26:04;;;;;;;12.98;7.15;;;22.20;47.90;;;;;;4415915;28;657487;-70
2023/01/02 12:29:19;;;;;;;17.48;8.50;;;22.50;48.00;;;;;;4392390;28;658064;-69
2023/01/02 12:32:25;;;;;;;15.02;8.10;;;21.90;49.00;;;;;;4410023;28;658913;-70
2023/01/02 12:35:22;;;;;;;16.38;8.25;;;21.40;50.60;;;;;;4414262;28;657611;-70
2023/01/02 12:38:10;;;;;;;16.60;8.27;;;21.20;49.10;;;;;;4413188;28;657786;-69
2023/01/02 12:41:07;;;;;;;18.63;8.15;;;21.20;49.10;;;;;;4409977;28;657574;-69
2023/01/02 12:44:14;;;;;;;13.07;8.23;;;20.60;50.70;;;;;;4405578;28;657891;-69
2023/01/02 12:47:10;;;;;;;16.80;8.52;;;20.10;49.70;;;;;;4413656;28;657467;-69
2023/01/02 12:50:20;;;;;;;18.83;8.48;;;20.60;51.20;;;;;;4419809;28;657281;-68
2023/01/02 12:53:15;;;;;;;14.50;8.38;;;19.60;53.00;;;;;;4412375;28;657986;-69
2023/01/02 12:56:07;;;;;;;15.88;9.07;;;20.50;52.10;;;;;;4415483;28;658294;-69
2023/01/02 12:59:04;;;;;;;17.88;9.43;;;19.20;51.30;;;;;;4411616;28;657430;-69
2023/01/02 13:01:53;;;;;;;18.77;9.13;;;20.10;53.10;;;;;;4391540;28;658216;-70
2023/01/02 13:04:42;;;;;;;20.38;9.95;;;20.40;51.80;;;;;;4415330;28;657943;-69
2023/01/02 13:07:30;;;;;;;20.70;9.55;;;19.80;54.10;;;;;;4434025;28;656966;-68
2023/01/02 13:10:20;;;;;;;16.33;9.40;;;19.40;54.40;;;;;;4411630;28;658776;-69
2023/01/02 13:13:09;;;;;;;18.55;9.43;;;19.30;54.10;;;;;;4414034;28;659007;-68
2023/01/02 13:15:56;;;;;;;17.38;9.65;;;19.50;55.10;;;;;;4416389;28;657678;-68
2023/01/02 13:18:49;;;;;;;20.90;10.30;;;19.60;55.50;;;;;;4434599;28;657862;-69
2023/01/02 13:21:40;;;;;;;18.70;10.60;;;17.60;58.00;;;;;;4416649;28;658608;-68
2023/01/02 13:24:27;;;;;;;18.37;10.77;;;17.90;60.10;;;;;;4407887;28;659779;-69
2023/01/02 13:27:14;;;;;;;22.07;11.13;;;17.90;59.50;;;;;;4428607;28;659399;-68
2023/01/02 13:30:03;;;;;;;22.47;11.63;;;18.30;59.00;;;;;;4410260;28;659218;-71
2023/01/02 13:32:51;;;;;;;27.07;11.53;;;17.60;60.00;;;;;;4413002;28;658697;-71
2023/01/02 13:35:38;;;;;;;23.10;10.88;;;18.00;61.10;;;;;;4437270;28;659334;-70
2023/01/02 13:38:27;;;;;;;18.63;10.90;;;17.30;62.30;;;;;;4414104;28;658903;-71
2023/01/02 13:41:14;;;;;;;19.00;10.27;;;17.20;64.10;;;;;;4437409;28;659134;-70
2023/01/02 13:44:02;;;;;;;19.10;10.00;;;16.90;66.50;;;;;;4415688;28;659592;-71
2023/01/02 13:46:50;;;;;;;22.27;11.03;;;17.70;63.70;;;;;;4432491;28;659471;-70
2023/01/02 13:49:37;;;;;;;20.77;10.63;;;18.00;62.40;;;;;;4410105;28;659721;-70
2023/01/02 13:52:25;;;;;;;22.23;11.47;;;18.80;61.20;;;;;;4430541;28;658924;-71
2023/01/02 13:55:30;;;;;;;22.13;11.60;;;18.90;59.30;;;;;;4439100;28;659524;-70
2023/01/02 13:58:52;;;;;;;23.80;11.00;;;18.60;59.90;;;;;;4393569;28;659794;-70
2023/01/02 14:02:04;;;;;;;20.77;10.23;;;18.00;62.20;;;;;;4417983;28;658694;-70
2023/01/02 14:04:52;;;;;;;24.70;11.32;;;18.00;63.40;;;;;;4411420;28;658882;-70
2023/01/02 14:07:49;;;;;;;21.53;10.57;;;18.20;61.10;;;;;;4434581;28;659602;-70
2023/01/02 14:10:40;;;;;;;21.87;11.00;;;18.20;62.30;;;;;;4413681;28;658513;-69
2023/01/02 14:13:35;;;;;;;22.33;11.63;;;18.20;61.60;;;;;;4412053;28;658985;-70
2023/01/02 14:16:43;;;;;;;23.37;11.83;;;18.10;62.30;;;;;;4413059;28;658767;-70
2023/01/02 14:19:31;;;;;;;21.70;11.20;;;18.20;62.50;;;;;;4394512;28;659263;-70
2023/01/02 14:22:19;;;;;;;19.30;11.17;;;18.10;62.60;;;;;;4404592;28;659173;-69
2023/01/02 14:25:11;;;;;;;21.17;10.37;;;17.80;63.30;;;;;;4379868;28;659546;-70